Аэропорт: Чебоксары. Чебоксары

ICAO: UWKS

METAR:
2019/05/26 14:00
UWKS 261400Z 18003MPS 9999 -SHRA SCT040CB 15/08 Q1009 R24/010060 NOSIG RMK QFE743
METAR:
2015/12/20 18:00
TAF UWKS 201632Z 2018/2103 27003MPS 2700 -SNRA BR OVC007 
      TEMPO 2018/2102 0500 FZDZ FZFG OVC002